Time;durP1;ratioP1;P1;durP2;ratioP2;P2;SDS_P1;SDS_P2;PMS_P1;PMS_P2;Temp;Humidity;BMP_temperature;BMP_pressure;BME280_temperature;BME280_humidity;BME280_pressure;Samples;Min_cycle;Max_cycle;Signal;HPM_P1;HPM_P2
2023/08/15 00:02:24;;;;;;;13.27;6.35;;;22.70;68.70;;;;;;9164907;19;20044;-68
2023/08/15 00:05:31;;;;;;;11.93;6.38;;;22.60;68.80;;;;;;9162467;19;20025;-69
2023/08/15 00:08:42;;;;;;;11.10;6.38;;;22.60;68.90;;;;;;9166218;19;20097;-68
2023/08/15 00:11:49;;;;;;;11.02;6.25;;;22.60;69.00;;;;;;9165939;19;20022;-69
2023/08/15 00:14:55;;;;;;;11.63;6.20;;;22.60;69.00;;;;;;9163328;19;20666;-69
2023/08/15 00:18:02;;;;;;;16.33;6.57;;;22.50;69.10;;;;;;9165570;19;20022;-68
2023/08/15 00:21:07;;;;;;;10.85;6.15;;;22.50;69.20;;;;;;9163247;19;20044;-69
2023/08/15 00:24:18;;;;;;;10.35;5.97;;;22.50;69.30;;;;;;9163583;19;20025;-68
2023/08/15 00:27:25;;;;;;;12.82;6.45;;;22.50;69.50;;;;;;9162697;19;20026;-69
2023/08/15 00:30:33;;;;;;;12.30;6.43;;;22.50;69.50;;;;;;9165431;19;20029;-69
2023/08/15 00:33:41;;;;;;;10.57;5.97;;;22.40;69.50;;;;;;9165530;19;20025;-68
2023/08/15 00:36:49;;;;;;;14.45;6.50;;;22.40;69.60;;;;;;9163812;19;20023;-69
2023/08/15 00:39:58;;;;;;;12.77;6.13;;;22.40;69.70;;;;;;9162763;19;20007;-68
2023/08/15 00:43:06;;;;;;;8.77;5.65;;;22.30;70.50;;;;;;9163325;19;20404;-68
2023/08/15 00:46:12;;;;;;;13.25;6.47;;;22.30;69.90;;;;;;9163472;19;20014;-68
2023/08/15 00:49:29;;;;;;;10.68;6.18;;;22.30;70.00;;;;;;9161068;19;20380;-69
2023/08/15 00:52:39;;;;;;;11.15;5.90;;;22.20;70.00;;;;;;9164120;19;20021;-69
2023/08/15 00:55:52;;;;;;;13.05;6.63;;;22.30;70.20;;;;;;9161325;19;20021;-68
2023/08/15 00:58:57;;;;;;;17.15;6.88;;;22.20;70.30;;;;;;9157087;19;20350;-68
2023/08/15 01:02:05;;;;;;;13.18;7.28;;;22.20;70.30;;;;;;9164536;19;20015;-69
2023/08/15 01:05:11;;;;;;;13.40;6.40;;;22.20;70.50;;;;;;9163510;19;20015;-68
2023/08/15 01:08:19;;;;;;;11.70;6.22;;;22.20;70.60;;;;;;9161314;19;20022;-70
2023/08/15 01:11:35;;;;;;;11.15;5.95;;;22.10;70.60;;;;;;9162531;19;20775;-71
2023/08/15 01:14:50;;;;;;;10.75;6.60;;;22.10;70.90;;;;;;9163291;19;20021;-68
2023/08/15 01:18:04;;;;;;;10.93;6.93;;;22.10;70.90;;;;;;9161328;19;20017;-69
2023/08/15 01:21:18;;;;;;;13.07;6.70;;;22.10;71.00;;;;;;9161572;19;20052;-68
2023/08/15 01:24:32;;;;;;;13.52;7.50;;;22.00;71.00;;;;;;9160539;19;20019;-68
2023/08/15 01:27:42;;;;;;;10.52;6.38;;;22.00;71.20;;;;;;9161301;19;20026;-69
2023/08/15 01:31:05;;;;;;;14.90;6.13;;;22.00;71.10;;;;;;9162777;19;20037;-69
2023/08/15 01:34:18;;;;;;;11.40;6.55;;;22.00;71.40;;;;;;9162235;19;20015;-69
2023/08/15 01:37:31;;;;;;;11.23;7.03;;;22.00;71.40;;;;;;9162344;19;20018;-69
2023/08/15 01:40:44;;;;;;;9.98;6.15;;;21.90;71.50;;;;;;9163005;19;20019;-69
2023/08/15 01:43:50;;;;;;;13.77;6.70;;;21.90;71.60;;;;;;9160407;19;20022;-69
2023/08/15 01:46:58;;;;;;;10.88;6.72;;;21.90;71.60;;;;;;9160546;19;20034;-69
2023/08/15 01:50:03;;;;;;;15.20;6.13;;;21.90;71.70;;;;;;9162935;19;20377;-69
2023/08/15 01:53:10;;;;;;;11.52;6.18;;;21.90;71.90;;;;;;9162224;19;20479;-69
2023/08/15 01:56:20;;;;;;;9.27;6.28;;;21.90;71.90;;;;;;9156418;19;20029;-68
2023/08/15 01:59:27;;;;;;;12.90;6.47;;;21.90;72.10;;;;;;9159631;19;20025;-68
2023/08/15 02:02:32;;;;;;;10.70;6.35;;;21.80;72.00;;;;;;9159724;19;20082;-68
2023/08/15 02:05:40;;;;;;;10.35;6.28;;;21.80;72.10;;;;;;9160074;19;20019;-70
2023/08/15 02:08:45;;;;;;;16.27;6.78;;;21.80;72.20;;;;;;9161049;19;20015;-69
2023/08/15 02:11:55;;;;;;;13.07;6.68;;;21.80;72.30;;;;;;9161422;19;20022;-69
2023/08/15 02:15:02;;;;;;;13.07;6.28;;;21.80;72.40;;;;;;9159310;19;20021;-68
2023/08/15 02:18:09;;;;;;;11.40;6.53;;;21.80;72.50;;;;;;9161258;19;20030;-69
2023/08/15 02:21:15;;;;;;;9.85;5.75;;;21.70;72.50;;;;;;9159655;19;20085;-69
2023/08/15 02:24:22;;;;;;;10.50;6.55;;;21.70;72.60;;;;;;9160888;19;20024;-68
2023/08/15 02:27:30;;;;;;;12.98;6.78;;;21.70;72.80;;;;;;9158804;19;20044;-70
2023/08/15 02:30:38;;;;;;;14.68;6.45;;;21.70;73.00;;;;;;9160434;19;20033;-70
2023/08/15 02:33:43;;;;;;;11.68;6.43;;;21.70;72.90;;;;;;9159344;19;20125;-69
2023/08/15 02:36:50;;;;;;;11.73;7.10;;;21.70;73.00;;;;;;9162498;19;20018;-69
2023/08/15 02:39:56;;;;;;;10.20;5.97;;;21.70;73.10;;;;;;9169536;19;20017;-69
2023/08/15 02:43:07;;;;;;;12.05;6.55;;;21.70;73.20;;;;;;9168417;19;20022;-67
2023/08/15 02:46:12;;;;;;;11.63;6.75;;;21.70;73.30;;;;;;9166886;19;20011;-69
2023/08/15 02:49:21;;;;;;;13.25;7.00;;;21.70;73.30;;;;;;9166424;19;20018;-70
2023/08/15 02:52:26;;;;;;;10.77;6.20;;;21.60;73.30;;;;;;9167518;19;20023;-69
2023/08/15 02:55:35;;;;;;;10.30;6.43;;;21.60;73.40;;;;;;9167290;19;20054;-68
2023/08/15 02:58:43;;;;;;;8.25;5.80;;;21.60;73.50;;;;;;9162061;19;20022;-69
2023/08/15 03:01:50;;;;;;;14.32;6.82;;;21.60;73.60;;;;;;9167261;19;20448;-68
2023/08/15 03:04:56;;;;;;;10.63;5.88;;;21.60;73.60;;;;;;9167064;19;20018;-69
2023/08/15 03:08:04;;;;;;;11.98;7.18;;;21.70;73.80;;;;;;9164903;19;20019;-68
2023/08/15 03:11:09;;;;;;;11.98;6.88;;;21.70;73.90;;;;;;9166436;19;20436;-68
2023/08/15 03:14:19;;;;;;;9.80;5.80;;;21.70;74.00;;;;;;9166162;19;20274;-68
2023/08/15 03:17:24;;;;;;;11.75;6.50;;;21.70;74.10;;;;;;9164773;19;20026;-69
2023/08/15 03:20:32;;;;;;;10.68;6.65;;;21.60;74.10;;;;;;9166444;19;20018;-68
2023/08/15 03:23:38;;;;;;;10.82;6.60;;;21.70;74.20;;;;;;9168339;19;20030;-68
2023/08/15 03:26:47;;;;;;;14.27;6.38;;;21.60;74.30;;;;;;9164776;19;20022;-69
2023/08/15 03:29:55;;;;;;;10.18;5.78;;;21.60;74.30;;;;;;9166711;19;20018;-69
2023/08/15 03:33:06;;;;;;;13.60;6.30;;;21.70;74.60;;;;;;9166058;19;20502;-69
2023/08/15 03:36:11;;;;;;;11.60;6.45;;;21.70;74.50;;;;;;9165832;19;20039;-69
2023/08/15 03:39:19;;;;;;;13.52;6.38;;;21.70;74.60;;;;;;9166178;19;20044;-70
2023/08/15 03:42:24;;;;;;;17.13;6.10;;;21.70;74.80;;;;;;9165927;19;20442;-69
2023/08/15 03:45:34;;;;;;;15.75;6.50;;;21.70;74.80;;;;;;9164968;19;20602;-70
2023/08/15 03:48:41;;;;;;;13.73;6.20;;;21.70;75.00;;;;;;9161207;19;20025;-69
2023/08/15 03:51:48;;;;;;;19.15;6.38;;;21.80;75.00;;;;;;9165066;19;20017;-70
2023/08/15 03:54:55;;;;;;;10.52;6.22;;;21.80;75.10;;;;;;9164865;19;20022;-70
2023/08/15 03:58:03;;;;;;;11.65;6.10;;;21.80;75.30;;;;;;9160158;19;20026;-69
2023/08/15 04:01:11;;;;;;;11.73;6.45;;;21.80;75.30;;;;;;9165672;19;20014;-69
2023/08/15 04:04:21;;;;;;;11.23;5.65;;;21.80;75.50;;;;;;9163960;19;20018;-69
2023/08/15 04:07:26;;;;;;;15.02;7.15;;;21.80;75.40;;;;;;9163451;19;20018;-69
2023/08/15 04:10:39;;;;;;;11.13;6.10;;;21.80;75.50;;;;;;9164268;19;20022;-70
2023/08/15 04:13:45;;;;;;;18.75;6.15;;;21.90;75.70;;;;;;9162327;19;20559;-68
2023/08/15 04:16:55;;;;;;;15.32;6.30;;;21.90;75.70;;;;;;9165605;19;20018;-69
2023/08/15 04:20:01;;;;;;;9.68;7.35;;;21.90;75.90;;;;;;9165577;19;20022;-69
2023/08/15 04:23:11;;;;;;;11.48;6.43;;;21.90;75.80;;;;;;9163432;19;20026;-72
2023/08/15 04:26:17;;;;;;;14.30;6.22;;;21.90;75.90;;;;;;9163818;19;20019;-69
2023/08/15 04:29:24;;;;;;;14.48;6.90;;;22.00;76.00;;;;;;9160990;19;20037;-69
2023/08/15 04:32:32;;;;;;;11.77;7.50;;;22.00;76.00;;;;;;9163605;19;20015;-68
2023/08/15 04:35:40;;;;;;;17.10;7.45;;;22.00;76.10;;;;;;9163725;19;20015;-69
2023/08/15 04:38:46;;;;;;;14.23;7.05;;;22.00;76.10;;;;;;9165304;19;20014;-70
2023/08/15 04:41:57;;;;;;;17.83;7.70;;;22.00;76.20;;;;;;9163288;19;20775;-69
2023/08/15 04:45:02;;;;;;;13.82;6.30;;;22.00;76.20;;;;;;9163332;19;20904;-68
2023/08/15 04:48:14;;;;;;;14.90;6.75;;;22.00;76.20;;;;;;9163508;19;20519;-68
2023/08/15 04:51:19;;;;;;;10.57;6.25;;;22.10;76.40;;;;;;9164953;19;20014;-69
2023/08/15 04:54:27;;;;;;;13.77;7.65;;;22.00;76.20;;;;;;9164142;19;20047;-69
2023/08/15 04:57:32;;;;;;;15.13;6.88;;;22.10;76.30;;;;;;9157700;19;20021;-69
2023/08/15 05:00:40;;;;;;;12.73;7.32;;;22.10;76.30;;;;;;9161770;19;20022;-70
2023/08/15 05:03:48;;;;;;;16.67;7.78;;;22.10;76.30;;;;;;9163806;19;20488;-68
2023/08/15 05:06:55;;;;;;;18.83;7.05;;;22.10;76.40;;;;;;9161482;19;20018;-69
2023/08/15 05:10:00;;;;;;;12.07;7.20;;;22.10;76.40;;;;;;9157374;19;20093;-70
2023/08/15 05:13:08;;;;;;;15.90;6.93;;;22.10;76.40;;;;;;9162459;19;20010;-69
2023/08/15 05:16:13;;;;;;;15.90;7.32;;;22.10;76.40;;;;;;9163725;19;20027;-69
2023/08/15 05:19:24;;;;;;;17.92;7.38;;;22.10;76.40;;;;;;9162447;19;20024;-69
2023/08/15 05:22:29;;;;;;;14.98;6.97;;;22.10;76.50;;;;;;9162327;19;20021;-69
2023/08/15 05:25:36;;;;;;;13.15;6.68;;;22.10;76.40;;;;;;9162272;19;20025;-70
2023/08/15 05:28:43;;;;;;;13.48;6.38;;;22.10;76.40;;;;;;9159653;19;20010;-70
2023/08/15 05:31:54;;;;;;;15.88;6.50;;;22.10;76.40;;;;;;9162155;19;20011;-70
2023/08/15 05:35:02;;;;;;;12.65;5.18;;;22.10;76.30;;;;;;9162242;19;20018;-69
2023/08/15 05:38:10;;;;;;;12.63;5.57;;;22.00;76.30;;;;;;9160922;19;20503;-69
2023/08/15 05:41:16;;;;;;;13.25;5.47;;;22.10;76.20;;;;;;9159001;19;20095;-68
2023/08/15 05:44:23;;;;;;;16.45;5.95;;;22.00;76.00;;;;;;9155942;19;20022;-69
2023/08/15 05:47:29;;;;;;;10.13;4.85;;;22.00;75.90;;;;;;9154831;19;20496;-70
2023/08/15 05:50:41;;;;;;;9.10;5.40;;;22.00;75.80;;;;;;9154190;19;20022;-69
2023/08/15 05:53:47;;;;;;;16.38;6.05;;;22.00;75.70;;;;;;9156674;19;20022;-70
2023/08/15 05:56:56;;;;;;;10.63;5.57;;;22.00;75.80;;;;;;9149666;19;20018;-71
2023/08/15 06:00:02;;;;;;;17.13;5.80;;;22.00;75.60;;;;;;9154980;19;20014;-67
2023/08/15 06:03:19;;;;;;;13.05;5.63;;;22.00;75.60;;;;;;9158360;19;22018;-70
2023/08/15 06:06:47;;;;;;;9.40;5.65;;;21.90;75.60;;;;;;9153543;19;20022;-69
2023/08/15 06:09:54;;;;;;;12.70;5.55;;;21.90;75.60;;;;;;9150248;19;20026;-68
2023/08/15 06:12:59;;;;;;;15.98;6.13;;;22.00;75.60;;;;;;9169597;19;20776;-68
2023/08/15 06:16:07;;;;;;;17.23;7.05;;;21.90;75.50;;;;;;9169516;19;20388;-69
2023/08/15 06:19:13;;;;;;;14.60;5.72;;;21.90;75.50;;;;;;9171864;19;20041;-70
2023/08/15 06:22:23;;;;;;;11.88;4.80;;;21.90;75.50;;;;;;9170106;19;20591;-68
2023/08/15 06:25:28;;;;;;;13.57;4.80;;;21.90;75.50;;;;;;9171439;19;20346;-69
2023/08/15 06:28:36;;;;;;;12.35;4.05;;;21.90;75.50;;;;;;9167513;19;20338;-69
2023/08/15 06:31:41;;;;;;;10.73;4.32;;;21.90;75.50;;;;;;9169238;19;20014;-69
2023/08/15 06:34:48;;;;;;;17.10;4.05;;;21.90;75.30;;;;;;9169719;19;20026;-68
2023/08/15 06:37:57;;;;;;;11.75;3.63;;;21.90;75.20;;;;;;9171525;19;20068;-70
2023/08/15 06:41:05;;;;;;;15.85;4.18;;;21.90;75.30;;;;;;9170552;19;20018;-70
2023/08/15 06:44:11;;;;;;;12.48;3.80;;;21.90;75.30;;;;;;9168701;19;20010;-71
2023/08/15 06:47:18;;;;;;;12.52;3.33;;;21.90;75.40;;;;;;9170479;19;20014;-69
2023/08/15 06:50:24;;;;;;;16.60;3.85;;;22.00;75.40;;;;;;9167107;19;20014;-70
2023/08/15 06:53:34;;;;;;;12.68;3.70;;;22.10;75.40;;;;;;9170011;19;20102;-70
2023/08/15 06:56:39;;;;;;;12.85;3.47;;;22.20;75.40;;;;;;9163479;19;20018;-69
2023/08/15 06:59:46;;;;;;;12.55;3.50;;;22.40;75.30;;;;;;9169285;19;20014;-69
2023/08/15 07:02:52;;;;;;;9.57;2.88;;;22.50;75.10;;;;;;9165411;19;20018;-69
2023/08/15 07:05:59;;;;;;;10.55;2.90;;;22.70;75.00;;;;;;9167221;19;20017;-69
2023/08/15 07:09:08;;;;;;;11.60;2.80;;;22.90;74.80;;;;;;9166722;19;20048;-69
2023/08/15 07:12:17;;;;;;;6.65;2.65;;;23.10;74.50;;;;;;9168067;19;20340;-69
2023/08/15 07:15:24;;;;;;;7.05;2.90;;;23.30;74.30;;;;;;9163154;19;20471;-70
2023/08/15 07:18:31;;;;;;;10.52;3.25;;;23.50;74.10;;;;;;9166125;19;20300;-69
2023/08/15 07:21:36;;;;;;;9.25;2.78;;;23.60;73.80;;;;;;9168009;19;20040;-69
2023/08/15 07:25:07;;;;;;;12.77;2.92;;;23.80;73.50;;;;;;9166959;19;20022;-69
2023/08/15 07:28:13;;;;;;;7.20;2.80;;;24.00;73.30;;;;;;9168174;19;20066;-70
2023/08/15 07:31:20;;;;;;;10.05;2.28;;;24.20;73.10;;;;;;9167824;19;20095;-70
2023/08/15 07:34:26;;;;;;;12.32;2.90;;;24.40;72.80;;;;;;9167107;19;20030;-68
2023/08/15 07:37:34;;;;;;;9.90;2.78;;;24.50;72.50;;;;;;9166254;19;20017;-69
2023/08/15 07:40:41;;;;;;;8.13;2.40;;;24.70;72.20;;;;;;9164901;19;20373;-69
2023/08/15 07:43:49;;;;;;;10.65;3.20;;;24.80;71.80;;;;;;9167198;19;20022;-69
2023/08/15 07:46:54;;;;;;;8.85;2.58;;;25.00;71.70;;;;;;9167966;19;20028;-71
2023/08/15 07:50:15;;;;;;;8.38;2.85;;;25.10;71.50;;;;;;9166262;19;20018;-70
2023/08/15 07:53:21;;;;;;;8.13;2.47;;;25.40;71.40;;;;;;9167818;19;20006;-71
2023/08/15 07:56:33;;;;;;;12.18;2.58;;;25.50;71.20;;;;;;9161665;19;21069;-71
2023/08/15 07:59:39;;;;;;;8.23;2.25;;;25.60;70.90;;;;;;9165530;19;20026;-69
2023/08/15 08:02:47;;;;;;;12.45;2.67;;;25.80;70.80;;;;;;9167181;19;20018;-72
2023/08/15 08:05:53;;;;;;;12.23;3.30;;;25.90;70.60;;;;;;9165658;19;20021;-70
2023/08/15 08:09:00;;;;;;;15.07;3.13;;;26.10;70.40;;;;;;9159357;19;20019;-72
2023/08/15 08:12:10;;;;;;;4.85;2.20;;;26.20;70.20;;;;;;9165319;19;20022;-70
2023/08/15 08:15:18;;;;;;;8.77;2.47;;;26.30;69.90;;;;;;9164544;19;20026;-72
2023/08/15 08:18:23;;;;;;;7.13;2.13;;;26.50;69.80;;;;;;9165171;19;20014;-71
2023/08/15 08:21:33;;;;;;;6.72;2.25;;;26.60;69.50;;;;;;9163498;19;20710;-71
2023/08/15 08:24:38;;;;;;;7.72;2.38;;;26.70;69.30;;;;;;9165576;19;20078;-70
2023/08/15 08:27:49;;;;;;;8.65;2.13;;;26.80;69.00;;;;;;9163864;19;20011;-70
2023/08/15 08:30:54;;;;;;;4.88;1.63;;;26.90;68.70;;;;;;9162946;19;20026;-70
2023/08/15 08:34:02;;;;;;;9.55;1.85;;;27.00;68.60;;;;;;9163240;19;20432;-73
2023/08/15 08:37:08;;;;;;;3.95;1.58;;;27.10;68.50;;;;;;9163090;19;20527;-72
2023/08/15 08:40:17;;;;;;;7.82;1.58;;;27.20;68.30;;;;;;9164875;19;20364;-71
2023/08/15 08:43:29;;;;;;;6.60;1.48;;;27.40;68.10;;;;;;9161386;19;20020;-72
2023/08/15 08:46:36;;;;;;;6.68;1.83;;;27.40;67.70;;;;;;9161263;19;20018;-71
2023/08/15 08:49:45;;;;;;;10.82;2.00;;;27.50;67.70;;;;;;9161238;19;20022;-71
2023/08/15 08:52:53;;;;;;;7.57;1.85;;;27.70;67.50;;;;;;9163069;19;20026;-70
2023/08/15 08:55:58;;;;;;;12.88;1.98;;;27.80;67.20;;;;;;9160811;19;20010;-71
2023/08/15 08:59:15;;;;;;;7.55;1.90;;;27.90;67.10;;;;;;9159058;19;20026;-70
2023/08/15 09:02:21;;;;;;;;;;;28.00;66.70;;;;;;9164021;19;20451;-70
2023/08/15 09:05:29;;;;;;;8.45;1.95;;;28.20;67.30;;;;;;9161721;19;19926;-69
2023/08/15 09:08:35;;;;;;;12.98;2.05;;;28.30;67.00;;;;;;9164172;19;20472;-69
2023/08/15 09:11:43;;;;;;;11.20;2.25;;;28.40;66.70;;;;;;9159972;19;20030;-69
2023/08/15 09:14:51;;;;;;;13.63;2.70;;;28.50;66.50;;;;;;9161096;19;20457;-72
2023/08/15 09:18:04;;;;;;;8.10;2.10;;;28.60;66.20;;;;;;9162025;19;20022;-71
2023/08/15 09:21:10;;;;;;;6.97;1.70;;;28.70;65.90;;;;;;9163404;19;20018;-71
2023/08/15 09:24:20;;;;;;;5.22;1.80;;;28.90;65.80;;;;;;9163241;19;20448;-72
2023/08/15 09:27:26;;;;;;;8.55;2.00;;;29.00;65.50;;;;;;9161656;19;20090;-71
2023/08/15 09:30:37;;;;;;;9.50;2.05;;;29.10;65.30;;;;;;9161546;19;20018;-71
2023/08/15 09:33:44;;;;;;;10.95;2.10;;;29.20;65.10;;;;;;9160782;19;20018;-72
2023/08/15 09:36:53;;;;;;;9.27;1.70;;;29.20;64.90;;;;;;9161118;19;20762;-72
2023/08/15 09:39:59;;;;;;;9.18;1.98;;;29.30;64.80;;;;;;9162342;19;20060;-72
2023/08/15 09:43:08;;;;;;;5.55;1.90;;;29.50;64.70;;;;;;9161167;19;20022;-72
2023/08/15 09:46:16;;;;;;;5.80;1.65;;;29.60;64.40;;;;;;9158411;19;20025;-70
2023/08/15 09:49:24;;;;;;;4.55;1.77;;;29.70;64.00;;;;;;9160813;19;20022;-71
2023/08/15 09:52:31;;;;;;;7.50;1.55;;;29.80;64.00;;;;;;9159845;19;20372;-71
2023/08/15 09:55:41;;;;;;;3.10;1.35;;;29.90;63.80;;;;;;9162059;19;20029;-71
2023/08/15 09:58:46;;;;;;;5.32;1.75;;;30.00;63.60;;;;;;9155842;19;20015;-75
2023/08/15 10:02:00;;;;;;;3.90;1.65;;;;;;;;;;9163520;19;20018;-73
2023/08/15 10:05:07;;;;;;;5.05;1.73;;;30.10;62.40;;;;;;9159342;19;20127;-74
2023/08/15 10:08:15;;;;;;;5.35;1.50;;;30.20;63.00;;;;;;9162497;19;20353;-72
2023/08/15 10:11:22;;;;;;;4.68;1.80;;;30.20;62.80;;;;;;9160774;19;20018;-71
2023/08/15 10:14:30;;;;;;;9.05;2.60;;;30.20;62.60;;;;;;9159859;19;20352;-70
2023/08/15 10:17:38;;;;;;;4.88;2.13;;;30.20;62.40;;;;;;9162389;19;20018;-66
2023/08/15 10:20:52;;;;;;;12.98;1.88;;;30.30;62.40;;;;;;9160497;19;20014;-70
2023/08/15 10:24:06;;;;;;;10.63;1.95;;;30.30;62.20;;;;;;9161958;19;20484;-72
2023/08/15 10:27:15;;;;;;;22.13;2.58;;;30.40;62.10;;;;;;9158113;19;20029;-72
2023/08/15 10:30:33;;;;;;;9.00;2.72;;;30.50;62.30;;;;;;9161407;19;20025;-71
2023/08/15 10:33:44;;;;;;;13.88;1.95;;;30.60;61.90;;;;;;9159147;19;20049;-70
2023/08/15 10:36:50;;;;;;;20.23;2.63;;;30.60;62.40;;;;;;9160280;19;20023;-70
2023/08/15 10:40:11;;;;;;;23.88;2.38;;;30.70;61.90;;;;;;9161207;19;20017;-69
2023/08/15 10:43:17;;;;;;;388.67;35.83;;;30.80;61.40;;;;;;9161516;19;20010;-69
2023/08/15 10:46:28;;;;;;;32.03;4.30;;;30.90;61.50;;;;;;9160599;19;20026;-67
2023/08/15 10:49:36;;;;;;;66.38;7.47;;;31.00;61.10;;;;;;9159714;19;20034;-67
2023/08/15 10:52:44;;;;;;;18.67;3.47;;;31.00;60.80;;;;;;9158749;19;20029;-67
2023/08/15 10:55:50;;;;;;;11.38;2.13;;;31.10;60.70;;;;;;9160385;19;20039;-67
2023/08/15 10:58:57;;;;;;;730.72;82.68;;;31.00;60.40;;;;;;9162363;19;20946;-66
2023/08/15 11:02:03;;;;;;;59.80;7.82;;;31.10;60.30;;;;;;9169913;19;20090;-68
2023/08/15 11:05:43;;;;;;;6.13;1.90;;;31.00;60.10;;;;;;9170238;19;20019;-69
2023/08/15 11:08:50;;;;;;;6.47;2.75;;;31.00;59.80;;;;;;9168274;19;20033;-67
2023/08/15 11:12:06;;;;;;;5.97;3.10;;;30.90;60.00;;;;;;9166808;19;20003;-67
2023/08/15 11:15:11;;;;;;;6.65;1.90;;;30.80;59.70;;;;;;9169180;19;20111;-68
2023/08/15 11:18:24;;;;;;;8.13;2.28;;;30.70;59.90;;;;;;9169497;19;20039;-69
2023/08/15 11:21:32;;;;;;;5.32;1.70;;;30.70;59.80;;;;;;9167593;19;20864;-69
2023/08/15 11:24:39;;;;;;;7.25;1.70;;;30.70;59.70;;;;;;9168195;19;20022;-71
2023/08/15 11:27:45;;;;;;;3.85;1.50;;;30.60;59.70;;;;;;9164146;19;20504;-69
2023/08/15 11:30:53;;;;;;;4.35;1.63;;;30.60;59.70;;;;;;9168001;19;20019;-68
2023/08/15 11:34:01;;;;;;;5.63;1.90;;;30.50;59.60;;;;;;9167957;19;20011;-71
2023/08/15 11:37:14;;;;;;;6.43;1.65;;;30.50;59.50;;;;;;9168525;19;20485;-68
2023/08/15 11:40:20;;;;;;;4.93;1.52;;;30.50;59.40;;;;;;9167606;19;20018;-71
2023/08/15 11:43:28;;;;;;;7.05;1.73;;;30.40;59.50;;;;;;9164100;19;20046;-71
2023/08/15 11:46:37;;;;;;;7.50;2.08;;;30.40;59.30;;;;;;9164712;19;20760;-70
2023/08/15 11:50:00;;;;;;;5.88;1.73;;;30.40;59.20;;;;;;9164356;19;20018;-69
2023/08/15 11:53:14;;;;;;;3.05;1.30;;;30.30;59.20;;;;;;9162793;19;20052;-70
2023/08/15 11:56:21;;;;;;;5.40;1.92;;;30.20;59.00;;;;;;9158552;19;20011;-71
2023/08/15 11:59:27;;;;;;;3.22;1.25;;;30.20;59.20;;;;;;9162668;19;20021;-70
2023/08/15 12:02:36;;;;;;;4.55;1.60;;;30.10;59.30;;;;;;9164365;19;20019;-70
2023/08/15 12:05:55;;;;;;;9.63;1.90;;;30.00;59.30;;;;;;9162149;19;20015;-70
2023/08/15 12:09:07;;;;;;;7.00;2.38;;;29.90;59.40;;;;;;9162058;19;20010;-69
2023/08/15 12:12:20;;;;;;;5.68;1.98;;;29.90;59.50;;;;;;9164862;19;20027;-70
2023/08/15 12:15:30;;;;;;;8.07;2.17;;;29.80;59.40;;;;;;9164891;19;20121;-70
2023/08/15 12:18:36;;;;;;;6.18;2.20;;;29.80;59.60;;;;;;9162341;19;20021;-71
2023/08/15 12:21:43;;;;;;;10.45;2.35;;;29.90;59.50;;;;;;9164108;19;20022;-71
2023/08/15 12:24:51;;;;;;;7.68;2.00;;;30.00;59.50;;;;;;9163449;19;20030;-71
2023/08/15 12:27:59;;;;;;;8.02;2.80;;;30.00;59.30;;;;;;9166526;19;20048;-71
2023/08/15 12:31:04;;;;;;;2.88;1.58;;;30.10;59.30;;;;;;9164151;19;20018;-75
2023/08/15 12:34:11;;;;;;;8.05;2.28;;;30.10;59.20;;;;;;9166510;19;20038;-71
2023/08/15 12:37:17;;;;;;;6.03;2.17;;;30.20;58.70;;;;;;9166128;19;20368;-53
2023/08/15 12:40:27;;;;;;;9.45;1.95;;;;;;;;;;9164067;19;20476;-58
2023/08/15 12:43:35;;;;;;;6.00;2.03;;;30.10;58.10;;;;;;9166712;19;20781;-61
2023/08/15 12:46:42;;;;;;;5.15;2.05;;;29.90;58.80;;;;;;9165811;19;20018;-63
2023/08/15 12:49:48;;;;;;;3.47;1.73;;;29.70;59.00;;;;;;9163605;19;20022;-63
2023/08/15 12:52:56;;;;;;;5.82;1.85;;;29.50;59.10;;;;;;9164143;19;20018;-63
2023/08/15 12:56:04;;;;;;;8.10;3.05;;;29.30;59.40;;;;;;9165346;19;20052;-62
2023/08/15 12:59:12;;;;;;;6.75;2.00;;;29.20;59.30;;;;;;9165677;19;20015;-63
2023/08/15 13:02:17;;;;;;;7.10;2.08;;;29.10;59.50;;;;;;9164977;19;20349;-62
2023/08/15 13:05:25;;;;;;;5.95;2.38;;;28.90;59.40;;;;;;9165248;19;20022;-62
2023/08/15 13:08:30;;;;;;;5.22;2.00;;;28.80;59.50;;;;;;9164901;19;20362;-61
2023/08/15 13:11:41;;;;;;;4.28;1.80;;;28.70;59.60;;;;;;9164143;19;20021;-61
2023/08/15 13:14:46;;;;;;;7.53;2.35;;;28.60;59.70;;;;;;9164254;19;20157;-61
2023/08/15 13:17:54;;;;;;;9.65;2.30;;;28.50;59.80;;;;;;9164943;19;20034;-62
2023/08/15 13:21:00;;;;;;;5.53;1.90;;;28.50;60.00;;;;;;9162414;19;20321;-62
2023/08/15 13:24:08;;;;;;;5.22;2.08;;;28.50;60.00;;;;;;9163030;19;20022;-61
2023/08/15 13:27:16;;;;;;;5.32;1.98;;;28.50;60.00;;;;;;9163753;19;20371;-60
2023/08/15 13:30:23;;;;;;;8.25;2.28;;;28.60;60.00;;;;;;9164157;19;20018;-61
2023/08/15 13:33:29;;;;;;;12.38;2.53;;;28.50;59.90;;;;;;9162142;19;20476;-62
2023/08/15 13:36:36;;;;;;;9.95;2.33;;;28.40;59.90;;;;;;9161822;19;20440;-61
2023/08/15 13:39:42;;;;;;;8.43;2.33;;;28.30;60.00;;;;;;9163158;19;20089;-61
2023/08/15 13:42:52;;;;;;;7.07;2.25;;;28.10;60.20;;;;;;9163322;19;20038;-62
2023/08/15 13:45:58;;;;;;;6.35;2.95;;;28.00;60.30;;;;;;9163230;19;20014;-61
2023/08/15 13:49:07;;;;;;;7.00;2.80;;;28.00;60.40;;;;;;9161678;19;20022;-62
2023/08/15 13:52:12;;;;;;;6.28;2.50;;;28.00;60.50;;;;;;9162888;19;20069;-62
2023/08/15 13:55:20;;;;;;;9.88;2.88;;;28.00;60.50;;;;;;9161147;19;20488;-62
2023/08/15 13:58:28;;;;;;;11.05;3.00;;;28.00;60.50;;;;;;9158642;19;20018;-62
2023/08/15 14:01:36;;;;;;;13.32;2.67;;;28.00;60.60;;;;;;9162672;19;20023;-62
2023/08/15 14:04:42;;;;;;;7.30;3.03;;;27.90;60.80;;;;;;9162410;19;20068;-62
2023/08/15 14:07:50;;;;;;;7.97;2.83;;;27.80;60.90;;;;;;9161682;19;20026;-62
2023/08/15 14:10:56;;;;;;;8.88;2.50;;;27.80;61.00;;;;;;9162792;19;20019;-61
2023/08/15 14:14:06;;;;;;;7.55;2.72;;;27.70;60.80;;;;;;9160882;19;20021;-65
2023/08/15 14:17:11;;;;;;;9.02;2.78;;;27.70;60.80;;;;;;9154053;19;20024;-62
2023/08/15 14:20:19;;;;;;;9.52;2.85;;;27.60;60.90;;;;;;9159350;19;20021;-62
2023/08/15 14:23:24;;;;;;;9.82;2.35;;;27.60;61.20;;;;;;9155864;19;20087;-67
2023/08/15 14:26:31;;;;;;;5.70;2.83;;;27.50;61.20;;;;;;9158977;19;20021;-64
2023/08/15 14:29:39;;;;;;;15.60;3.50;;;27.60;61.30;;;;;;9157207;19;20026;-64
2023/08/15 14:32:47;;;;;;;13.05;3.15;;;27.70;61.30;;;;;;9158260;19;20844;-62
2023/08/15 14:35:52;;;;;;;12.55;2.85;;;27.70;61.30;;;;;;9166547;19;20027;-62
2023/08/15 14:38:59;;;;;;;7.72;2.78;;;27.70;61.30;;;;;;9162463;19;20021;-62
2023/08/15 14:42:05;;;;;;;11.65;3.03;;;27.70;61.30;;;;;;9166909;19;20022;-60
2023/08/15 14:45:15;;;;;;;35.55;3.55;;;27.60;61.30;;;;;;9162343;19;20014;-62
2023/08/15 14:48:21;;;;;;;19.65;4.07;;;27.50;61.60;;;;;;9165187;19;20019;-58
2023/08/15 14:51:28;;;;;;;8.57;2.78;;;27.60;61.50;;;;;;9165442;19;20025;-57
2023/08/15 14:54:33;;;;;;;14.93;2.85;;;27.70;61.50;;;;;;9163984;19;20022;-57
2023/08/15 14:57:41;;;;;;;6.93;2.75;;;27.70;61.40;;;;;;9159942;19;20021;-66
2023/08/15 15:00:52;;;;;;;8.95;2.83;;;27.80;61.30;;;;;;9160405;19;20044;-60
2023/08/15 15:03:59;;;;;;;5.53;2.70;;;27.80;61.30;;;;;;9158218;19;20011;-57
2023/08/15 15:07:08;;;;;;;8.98;2.92;;;27.70;61.20;;;;;;9159866;19;20483;-62
2023/08/15 15:10:15;;;;;;;15.40;3.90;;;27.70;61.20;;;;;;9160218;19;20014;-62
2023/08/15 15:13:21;;;;;;;10.88;2.83;;;27.50;61.20;;;;;;9159800;19;20062;-61
2023/08/15 15:16:31;;;;;;;6.10;2.10;;;27.40;61.40;;;;;;9160864;19;20804;-62
2023/08/15 15:19:37;;;;;;;10.98;2.80;;;27.40;61.50;;;;;;9168821;19;20022;-60
2023/08/15 15:22:44;;;;;;;7.47;2.60;;;27.30;61.30;;;;;;9167221;19;20021;-59
2023/08/15 15:25:50;;;;;;;8.35;2.55;;;27.30;61.40;;;;;;9166552;19;20056;-61
2023/08/15 15:28:57;;;;;;;6.05;2.13;;;27.20;61.40;;;;;;9165925;19;20014;-60
2023/08/15 15:32:06;;;;;;;9.15;2.38;;;27.10;61.40;;;;;;9166444;19;20011;-61
2023/08/15 15:35:13;;;;;;;9.48;2.50;;;27.00;61.40;;;;;;9165461;19;20030;-61
2023/08/15 15:38:19;;;;;;;7.60;2.90;;;27.00;62.20;;;;;;9167512;19;20014;-60
2023/08/15 15:41:26;;;;;;;6.88;2.65;;;26.90;61.70;;;;;;9164698;19;20019;-61
2023/08/15 15:44:34;;;;;;;7.88;2.72;;;26.90;61.80;;;;;;9165181;19;20010;-60
2023/08/15 15:47:44;;;;;;;10.93;3.42;;;26.90;61.90;;;;;;9164819;19;20019;-62
2023/08/15 15:50:49;;;;;;;23.50;4.50;;;26.90;62.00;;;;;;9164817;19;20022;-61
2023/08/15 15:53:57;;;;;;;15.38;3.67;;;26.90;62.00;;;;;;9164401;19;20014;-65
2023/08/15 15:57:02;;;;;;;14.93;2.80;;;26.80;62.10;;;;;;9159091;19;20018;-65
2023/08/15 16:00:13;;;;;;;10.18;2.72;;;26.80;62.20;;;;;;9164093;19;20045;-62
2023/08/15 16:03:21;;;;;;;14.13;3.25;;;26.70;62.30;;;;;;9164701;19;20018;-63
2023/08/15 16:06:29;;;;;;;10.32;3.20;;;26.70;62.40;;;;;;9162145;19;20026;-63
2023/08/15 16:09:34;;;;;;;9.50;3.15;;;26.60;62.50;;;;;;9164658;19;20041;-64
2023/08/15 16:12:42;;;;;;;11.95;3.40;;;26.60;62.60;;;;;;9163820;19;20021;-63
2023/08/15 16:15:47;;;;;;;9.98;2.92;;;26.60;62.70;;;;;;9162041;19;20022;-63